createdAt,value
2023-04-21T00:00:00.494Z,70.49
2023-04-21T00:02:29.059Z,69.55
2023-04-21T00:04:57.448Z,71.26
2023-04-21T00:07:25.697Z,71.72
2023-04-21T00:09:53.940Z,69.11
2023-04-21T00:12:22.132Z,69.75
2023-04-21T00:14:50.479Z,71.09
2023-04-21T00:17:18.785Z,69.58
2023-04-21T00:19:47.841Z,69.54
2023-04-21T00:22:16.850Z,68.54
2023-04-21T00:24:45.172Z,70.07
2023-04-21T00:27:13.478Z,70.66
2023-04-21T00:29:41.814Z,71.13
2023-04-21T00:32:11.018Z,70.22
2023-04-21T00:34:39.255Z,69.14
2023-04-21T00:37:07.803Z,70.09
2023-04-21T00:39:36.271Z,71.21
2023-04-21T00:42:04.594Z,73.07
2023-04-21T00:44:32.832Z,70.52
2023-04-21T00:47:01.110Z,73.42
2023-04-21T00:49:29.548Z,74.48
2023-04-21T00:51:57.859Z,70.11
2023-04-21T00:54:26.204Z,71.84
2023-04-21T00:56:58.390Z,72.09
2023-04-21T00:59:26.748Z,71.47
2023-04-21T01:01:55.029Z,73.37
2023-04-21T01:04:23.430Z,73.12
2023-04-21T01:06:52.314Z,75.03
2023-04-21T01:09:22.018Z,73.30
2023-04-21T01:12:11.251Z,73.47
2023-04-21T01:14:40.967Z,72.99
2023-04-21T01:17:10.468Z,73.10
2023-04-21T01:19:42.922Z,72.58
2023-04-21T01:22:13.293Z,76.35
2023-04-21T01:24:48.472Z,73.42
2023-04-21T01:27:20.065Z,73.18
2023-04-21T01:29:52.197Z,70.75
2023-04-21T01:32:26.352Z,71.06
2023-04-21T01:34:57.504Z,70.12
2023-04-21T01:37:32.624Z,72.77
2023-04-21T01:40:07.087Z,72.42
2023-04-21T01:42:42.544Z,71.55
2023-04-21T01:45:11.563Z,72.53
2023-04-21T01:47:40.124Z,71.32
2023-04-21T01:50:08.731Z,70.45
2023-04-21T01:52:36.952Z,71.33
2023-04-21T01:55:05.784Z,71.52
2023-04-21T01:57:36.130Z,71.10
2023-04-21T02:00:05.629Z,69.55
2023-04-21T02:02:43.610Z,70.17
2023-04-21T02:05:14.350Z,71.30
2023-04-21T02:07:43.721Z,73.17
2023-04-21T02:10:12.793Z,73.64
2023-04-21T02:12:41.080Z,71.36
2023-04-21T02:15:12.020Z,72.98
2023-04-21T02:17:40.325Z,72.42
2023-04-21T02:20:09.520Z,72.50
2023-04-21T02:22:38.387Z,72.80
2023-04-21T02:25:07.088Z,73.59
2023-04-21T02:27:35.285Z,72.88
2023-04-21T02:30:03.821Z,72.37
2023-04-21T02:32:32.393Z,72.26
2023-04-21T02:35:00.740Z,72.79
2023-04-21T02:37:28.926Z,72.73
2023-04-21T02:39:57.290Z,72.97
2023-04-21T02:42:26.115Z,70.86
2023-04-21T02:44:54.368Z,73.06
2023-04-21T02:47:22.616Z,72.85
2023-04-21T02:49:50.961Z,72.74
2023-04-21T02:52:19.300Z,72.65
2023-04-21T02:54:47.647Z,69.65
2023-04-21T02:57:15.916Z,69.34
2023-04-21T02:59:44.185Z,66.82
2023-04-21T03:02:12.481Z,67.95
2023-04-21T03:04:40.963Z,69.72
2023-04-21T03:07:15.474Z,71.26
2023-04-21T03:09:43.816Z,72.18
2023-04-21T03:12:12.224Z,73.58
2023-04-21T03:14:42.223Z,70.90
2023-04-21T03:17:10.640Z,72.01
2023-04-21T03:19:39.140Z,71.76
2023-04-21T03:22:07.821Z,74.00
2023-04-21T03:24:37.056Z,75.05
2023-04-21T03:27:06.506Z,74.36
2023-04-21T03:29:35.972Z,73.77
2023-04-21T03:32:04.826Z,73.89
2023-04-21T03:34:33.143Z,73.08
2023-04-21T03:37:05.181Z,71.59
2023-04-21T03:39:33.584Z,73.48
2023-04-21T03:42:03.025Z,72.73
2023-04-21T03:44:31.623Z,74.52
2023-04-21T03:47:05.558Z,72.04
2023-04-21T03:49:36.970Z,71.85
2023-04-21T03:52:05.628Z,74.00
2023-04-21T03:54:34.142Z,72.90
2023-04-21T03:57:02.381Z,72.78
2023-04-21T03:59:30.936Z,72.64
2023-04-21T04:01:59.222Z,74.18
2023-04-21T04:04:27.668Z,71.86
2023-04-21T04:06:56.053Z,71.90
2023-04-21T04:09:24.473Z,70.98
2023-04-21T04:11:52.800Z,72.16
2023-04-21T04:14:21.009Z,73.75
2023-04-21T04:16:49.202Z,76.13
2023-04-21T04:19:17.727Z,73.72
2023-04-21T04:21:48.851Z,71.75
2023-04-21T04:24:17.093Z,72.88
2023-04-21T04:26:45.402Z,69.56
2023-04-21T04:29:14.031Z,69.60
2023-04-21T04:31:42.387Z,69.74
2023-04-21T04:34:11.260Z,69.62
2023-04-21T04:36:39.852Z,72.89
2023-04-21T04:39:10.404Z,72.33
2023-04-21T04:41:39.250Z,71.44
2023-04-21T04:44:07.824Z,70.18
2023-04-21T04:46:36.282Z,71.62
2023-04-21T04:49:04.727Z,71.22
2023-04-21T04:51:33.581Z,71.14
2023-04-21T04:54:02.069Z,71.63
2023-04-21T04:56:31.150Z,69.30
2023-04-21T04:58:59.593Z,71.18
2023-04-21T05:01:30.754Z,69.45
2023-04-21T05:03:59.654Z,68.72
2023-04-21T05:06:28.458Z,68.61
2023-04-21T05:08:56.886Z,68.62
2023-04-21T05:11:25.120Z,68.79
2023-04-21T05:13:53.445Z,67.88
2023-04-21T05:16:21.712Z,67.54
2023-04-21T05:18:54.098Z,68.71
2023-04-21T05:21:29.120Z,68.13
2023-04-21T05:23:59.266Z,68.51
2023-04-21T05:26:29.496Z,70.10
2023-04-21T05:28:58.745Z,69.04
2023-04-21T05:31:27.198Z,69.05
2023-04-21T05:33:55.704Z,69.37
2023-04-21T05:36:25.135Z,68.24
2023-04-21T05:38:54.090Z,68.56
2023-04-21T05:41:22.629Z,68.87
2023-04-21T05:43:50.929Z,69.90
2023-04-21T05:46:19.318Z,68.29
2023-04-21T05:48:47.673Z,67.92
2023-04-21T05:51:16.150Z,68.49
2023-04-21T05:53:45.727Z,68.74
2023-04-21T05:56:14.770Z,68.38
2023-04-21T05:58:43.126Z,67.90
2023-04-21T06:01:12.855Z,67.53
2023-04-21T06:03:41.302Z,67.58
2023-04-21T06:06:11.610Z,68.65
2023-04-21T06:08:39.926Z,66.53
2023-04-21T06:11:08.601Z,66.29
2023-04-21T06:13:38.598Z,66.72
2023-04-21T06:16:07.869Z,66.65
2023-04-21T06:18:37.408Z,66.59
2023-04-21T06:21:05.943Z,67.19
2023-04-21T06:23:34.410Z,67.05
2023-04-21T06:26:05.613Z,66.32
2023-04-21T06:28:35.622Z,66.11
2023-04-21T06:31:07.816Z,65.75
2023-04-21T06:33:37.873Z,66.22
2023-04-21T06:36:06.409Z,66.49
2023-04-21T06:38:35.013Z,66.80
2023-04-21T06:41:04.535Z,65.94
2023-04-21T06:43:33.128Z,64.98
2023-04-21T06:46:01.456Z,65.76
2023-04-21T06:48:30.483Z,65.53
2023-04-21T06:50:58.655Z,65.52
2023-04-21T06:53:27.146Z,65.86
2023-04-21T06:55:56.240Z,65.25
2023-04-21T06:58:24.587Z,65.80
2023-04-21T07:00:52.910Z,64.54
2023-04-21T07:03:21.430Z,63.92
2023-04-21T07:05:51.012Z,64.23
2023-04-21T07:08:19.100Z,64.42
2023-04-21T07:10:47.555Z,64.85
2023-04-21T07:13:17.737Z,64.50
2023-04-21T07:15:46.854Z,64.61
2023-04-21T07:18:15.555Z,64.35
2023-04-21T07:20:43.861Z,63.71
2023-04-21T07:23:12.542Z,63.89
2023-04-21T07:25:40.727Z,63.21
2023-04-21T07:28:09.247Z,63.42
2023-04-21T07:30:38.685Z,62.75
2023-04-21T07:33:07.110Z,62.55
2023-04-21T07:35:35.611Z,62.86
2023-04-21T07:38:04.019Z,62.41
2023-04-21T07:40:32.340Z,62.30
2023-04-21T07:43:00.718Z,62.30
2023-04-21T07:45:29.113Z,62.04
2023-04-21T07:47:57.567Z,61.51
2023-04-21T07:50:26.185Z,61.64
2023-04-21T07:52:54.093Z,60.46
2023-04-21T07:55:22.452Z,60.88
2023-04-21T07:57:50.874Z,60.72
2023-04-21T08:00:19.076Z,60.14
2023-04-21T08:02:47.553Z,60.33
2023-04-21T08:05:16.309Z,59.74
2023-04-21T08:07:45.397Z,59.33
2023-04-21T08:10:13.931Z,59.24
2023-04-21T08:12:42.232Z,58.65
2023-04-21T08:15:12.357Z,58.18
2023-04-21T08:17:40.907Z,57.79
2023-04-21T08:20:12.183Z,57.04
2023-04-21T08:22:40.900Z,56.72
2023-04-21T08:25:10.350Z,56.45
2023-04-21T08:27:39.666Z,56.46
2023-04-21T08:30:09.144Z,56.01
2023-04-21T08:32:37.182Z,55.32
2023-04-21T08:35:05.948Z,55.17
2023-04-21T08:37:39.888Z,54.35
2023-04-21T08:40:08.734Z,53.97
2023-04-21T08:42:39.284Z,52.95
2023-04-21T08:45:08.601Z,52.06
2023-04-21T08:47:41.612Z,52.11
2023-04-21T08:50:14.798Z,52.19
2023-04-21T08:52:42.813Z,52.06
2023-04-21T08:55:13.631Z,52.52
2023-04-21T08:57:42.007Z,52.10
2023-04-21T09:00:10.966Z,51.18
2023-04-21T09:03:02.017Z,51.25
2023-04-21T09:05:34.276Z,49.84
2023-04-21T09:08:16.488Z,49.77
2023-04-21T09:10:51.222Z,48.81
2023-04-21T09:13:23.154Z,48.30
2023-04-21T09:15:52.360Z,47.61
2023-04-21T09:18:24.186Z,47.66
2023-04-21T09:21:16.155Z,46.65
2023-04-21T09:23:55.463Z,45.80
2023-04-21T09:26:24.145Z,46.22
2023-04-21T09:28:53.520Z,46.24
2023-04-21T09:31:25.215Z,45.85
2023-04-21T09:33:59.519Z,44.73
2023-04-21T09:36:31.846Z,44.63
2023-04-21T09:41:36.178Z,44.40
2023-04-21T09:44:16.412Z,43.03
2023-04-21T09:46:45.770Z,43.53
2023-04-21T09:49:21.981Z,42.98
2023-04-21T09:52:16.995Z,42.40
2023-04-21T09:54:51.115Z,41.56
2023-04-21T09:57:23.361Z,39.29
2023-04-21T10:00:11.994Z,38.38
2023-04-21T10:02:48.763Z,36.77
2023-04-21T10:05:17.636Z,36.04
2023-04-21T10:07:48.034Z,35.60
2023-04-21T10:10:36.584Z,35.23
2023-04-21T10:13:05.316Z,34.28
2023-04-21T10:15:41.652Z,32.42
2023-04-21T10:18:22.673Z,33.87
2023-04-21T10:21:09.953Z,31.71
2023-04-21T10:23:46.410Z,31.11
2023-04-21T10:26:25.574Z,31.39
2023-04-21T10:28:57.564Z,31.00
2023-04-21T10:31:39.101Z,29.85
2023-04-21T10:34:07.764Z,29.30
2023-04-21T10:36:45.982Z,30.76
2023-04-21T10:39:37.850Z,29.50
2023-04-21T10:42:24.693Z,27.97
2023-04-21T10:44:58.830Z,27.38
2023-04-21T10:47:49.698Z,27.58
2023-04-21T10:50:22.204Z,28.09
2023-04-21T10:52:54.620Z,28.31
2023-04-21T10:55:26.912Z,27.38
2023-04-21T10:57:55.610Z,25.05
2023-04-21T11:00:25.190Z,24.70
2023-04-21T11:03:07.033Z,24.01
2023-04-21T11:05:41.846Z,23.30
2023-04-21T11:08:14.775Z,24.29
2023-04-21T11:10:56.190Z,22.89
2023-04-21T11:13:27.989Z,23.14
2023-04-21T11:16:07.271Z,21.86
2023-04-21T11:18:42.908Z,21.72
2023-04-21T11:21:20.002Z,100.00
2023-04-21T11:23:57.350Z,21.72
2023-04-21T11:26:40.163Z,20.92
2023-04-21T11:29:10.700Z,20.14
2023-04-21T11:31:42.970Z,19.65
2023-04-21T11:34:11.728Z,100.00
2023-04-21T11:36:43.843Z,100.00
2023-04-21T11:39:19.567Z,100.00
2023-04-21T11:41:51.857Z,18.99
2023-04-21T11:44:36.706Z,18.15
2023-04-21T11:47:25.861Z,18.39
2023-04-21T11:49:57.362Z,17.67
2023-04-21T11:52:32.934Z,17.87
2023-04-21T11:55:12.974Z,17.16
2023-04-21T11:57:43.033Z,17.57
2023-04-21T12:00:16.863Z,17.35
2023-04-21T12:02:56.586Z,17.67
2023-04-21T12:05:24.905Z,17.65
2023-04-21T12:07:56.406Z,16.39
2023-04-21T12:10:26.317Z,17.07
2023-04-21T12:12:57.049Z,100.00
2023-04-21T12:15:26.611Z,100.00
2023-04-21T12:17:55.792Z,100.00
2023-04-21T12:20:29.747Z,100.00
2023-04-21T12:22:58.701Z,100.00
2023-04-21T12:25:26.954Z,100.00
2023-04-21T12:27:59.104Z,100.00
2023-04-21T12:30:27.509Z,100.00
2023-04-21T12:32:56.029Z,100.00
2023-04-21T12:35:25.941Z,100.00
2023-04-21T12:37:53.725Z,100.00
2023-04-21T12:40:22.055Z,100.00
2023-04-21T12:42:50.273Z,100.00
2023-04-21T12:45:18.704Z,100.00
2023-04-21T12:47:47.281Z,100.00
2023-04-21T12:50:16.569Z,100.00
2023-04-21T12:52:44.980Z,100.00
2023-04-21T12:55:13.757Z,100.00
2023-04-21T12:57:42.350Z,100.00
2023-04-21T13:00:14.782Z,100.00
2023-04-21T13:02:44.523Z,100.00
2023-04-21T13:05:13.339Z,100.00
2023-04-21T13:07:41.900Z,100.00
2023-04-21T13:10:11.115Z,100.00
2023-04-21T13:12:39.216Z,100.00
2023-04-21T13:15:08.469Z,100.00
2023-04-21T13:17:38.085Z,100.00
2023-04-21T13:20:07.998Z,100.00
2023-04-21T13:22:36.493Z,100.00
2023-04-21T13:25:05.118Z,100.00
2023-04-21T13:27:34.077Z,100.00
2023-04-21T13:30:02.275Z,100.00
2023-04-21T13:32:30.706Z,100.00
2023-04-21T13:34:59.077Z,100.00
2023-04-21T13:37:27.495Z,100.00
2023-04-21T13:39:56.878Z,100.00
2023-04-21T13:42:25.679Z,100.00
2023-04-21T13:44:53.980Z,100.00
2023-04-21T13:47:22.269Z,100.00
2023-04-21T13:49:51.488Z,100.00
2023-04-21T13:52:19.765Z,100.00
2023-04-21T13:54:48.063Z,100.00
2023-04-21T13:57:16.470Z,100.00
2023-04-21T13:59:44.901Z,100.00
2023-04-21T14:02:13.385Z,100.00
2023-04-21T14:04:42.047Z,100.00
2023-04-21T14:07:11.085Z,100.00
2023-04-21T14:09:39.007Z,100.00
2023-04-21T14:12:07.536Z,100.00
2023-04-21T14:14:38.852Z,100.00
2023-04-21T14:17:08.300Z,100.00
2023-04-21T14:19:37.118Z,100.00
2023-04-21T14:22:05.474Z,100.00
2023-04-21T14:24:34.070Z,100.00
2023-04-21T14:27:02.385Z,100.00
2023-04-21T14:29:30.835Z,100.00
2023-04-21T14:31:59.451Z,100.00
2023-04-21T14:34:27.933Z,100.00
2023-04-21T14:36:56.613Z,100.00
2023-04-21T14:39:25.800Z,100.00
2023-04-21T14:41:54.479Z,100.00
2023-04-21T14:44:22.738Z,100.00
2023-04-21T14:47:01.483Z,100.00
2023-04-21T14:49:40.802Z,100.00
2023-04-21T14:52:09.301Z,100.00
2023-04-21T14:54:37.607Z,100.00
2023-04-21T14:57:17.460Z,100.00
2023-04-21T14:59:49.357Z,100.00
2023-04-21T15:02:17.934Z,100.00
2023-04-21T15:04:46.510Z,100.00
2023-04-21T15:07:17.183Z,100.00
2023-04-21T15:09:48.578Z,100.00
2023-04-21T15:12:16.467Z,100.00
2023-04-21T15:14:45.112Z,100.00
2023-04-21T15:17:13.720Z,100.00
2023-04-21T15:19:42.293Z,100.00
2023-04-21T15:22:12.056Z,100.00
2023-04-21T15:24:40.426Z,100.00
2023-04-21T15:27:08.718Z,100.00
2023-04-21T15:29:37.303Z,100.00
2023-04-21T15:32:05.568Z,100.00
2023-04-21T15:34:34.015Z,100.00
2023-04-21T15:37:02.342Z,100.00
2023-04-21T15:39:30.706Z,100.00
2023-04-21T15:41:59.517Z,100.00
2023-04-21T15:44:27.931Z,100.00
2023-04-21T15:46:56.503Z,100.00
2023-04-21T15:49:26.223Z,100.00
2023-04-21T15:51:54.136Z,100.00
2023-04-21T15:54:22.859Z,100.00
2023-04-21T15:56:51.331Z,100.00
2023-04-21T15:59:19.592Z,100.00
2023-04-21T16:01:47.736Z,100.00
2023-04-21T16:04:16.393Z,100.00
2023-04-21T16:06:44.840Z,100.00
2023-04-21T16:09:13.158Z,100.00
2023-04-21T16:11:41.417Z,100.00
2023-04-21T16:14:09.796Z,100.00
2023-04-21T16:16:38.196Z,100.00
2023-04-21T16:19:07.098Z,100.00
2023-04-21T16:21:36.263Z,100.00
2023-04-21T16:24:07.434Z,100.00
2023-04-21T16:26:36.764Z,100.00
2023-04-21T16:29:05.323Z,100.00
2023-04-21T16:31:33.804Z,100.00
2023-04-21T16:34:02.068Z,100.00
2023-04-21T16:36:32.450Z,100.00
2023-04-21T16:39:01.150Z,100.00
2023-04-21T16:41:30.411Z,100.00
2023-04-21T16:43:58.842Z,100.00
2023-04-21T16:46:27.196Z,100.00
2023-04-21T16:48:55.858Z,100.00
2023-04-21T16:51:26.111Z,100.00
2023-04-21T16:53:56.464Z,100.00
2023-04-21T16:56:24.922Z,100.00
2023-04-21T16:58:53.355Z,100.00
2023-04-21T17:01:21.981Z,100.00
2023-04-21T17:03:50.365Z,100.00
2023-04-21T17:06:21.174Z,100.00
2023-04-21T17:08:49.796Z,100.00
2023-04-21T17:11:18.178Z,100.00
2023-04-21T17:13:46.561Z,100.00
2023-04-21T17:16:14.939Z,100.00
2023-04-21T17:18:43.262Z,100.00
2023-04-21T17:21:12.562Z,100.00
2023-04-21T17:23:41.201Z,100.00
2023-04-21T17:26:12.255Z,100.00
2023-04-21T17:28:41.505Z,100.00
2023-04-21T17:31:15.918Z,100.00
2023-04-21T17:33:45.513Z,25.08
2023-04-21T17:36:13.689Z,25.02
2023-04-21T17:38:43.210Z,25.54
2023-04-21T17:41:11.693Z,25.57
2023-04-21T17:43:40.844Z,100.00
2023-04-21T17:46:09.391Z,25.57
2023-04-21T17:48:37.811Z,25.88
2023-04-21T17:51:06.386Z,25.62
2023-04-21T17:53:34.638Z,26.08
2023-04-21T17:56:02.918Z,26.02
2023-04-21T17:58:31.381Z,26.22
2023-04-21T18:00:59.607Z,26.43
2023-04-21T18:03:28.381Z,27.15
2023-04-21T18:05:57.364Z,27.06
2023-04-21T18:08:26.309Z,26.98
2023-04-21T18:10:55.569Z,27.39
2023-04-21T18:13:24.128Z,27.26
2023-04-21T18:15:52.244Z,27.99
2023-04-21T18:18:20.970Z,28.64
2023-04-21T18:20:49.017Z,27.81
2023-04-21T18:23:17.363Z,27.89
2023-04-21T18:25:45.948Z,28.40
2023-04-21T18:28:14.432Z,28.45
2023-04-21T18:30:42.834Z,28.28
2023-04-21T18:33:11.849Z,28.71
2023-04-21T18:35:42.158Z,28.34
2023-04-21T18:38:11.919Z,28.55
2023-04-21T18:40:41.388Z,28.99
2023-04-21T18:43:11.002Z,28.81
2023-04-21T18:45:39.568Z,29.10
2023-04-21T18:48:08.419Z,29.10
2023-04-21T18:50:39.882Z,29.47
2023-04-21T18:53:08.991Z,29.54
2023-04-21T18:55:37.719Z,29.59
2023-04-21T18:58:06.341Z,30.06
2023-04-21T19:00:37.231Z,29.85
2023-04-21T19:03:06.678Z,30.48
2023-04-21T19:05:36.766Z,30.38
2023-04-21T19:08:05.630Z,30.16
2023-04-21T19:10:37.875Z,30.79
2023-04-21T19:13:06.481Z,30.45
2023-04-21T19:15:35.394Z,31.01
2023-04-21T19:18:03.739Z,30.99
2023-04-21T19:20:32.438Z,30.91
2023-04-21T19:23:01.675Z,31.18
2023-04-21T19:25:30.937Z,31.52
2023-04-21T19:28:00.254Z,31.45
2023-04-21T19:30:28.690Z,31.49
2023-04-21T19:32:57.028Z,30.98
2023-04-21T19:35:26.132Z,31.24
2023-04-21T19:37:54.431Z,32.00
2023-04-21T19:40:22.273Z,31.23
2023-04-21T19:42:50.614Z,31.61
2023-04-21T19:45:18.856Z,31.71
2023-04-21T19:47:47.653Z,32.23
2023-04-21T19:50:16.240Z,31.68
2023-04-21T19:52:46.416Z,32.75
2023-04-21T19:55:14.823Z,32.70
2023-04-21T19:57:43.076Z,32.52
2023-04-21T20:00:12.443Z,31.92
2023-04-21T20:02:40.837Z,32.27
2023-04-21T20:05:10.010Z,32.97
2023-04-21T20:07:38.561Z,32.30
2023-04-21T20:10:08.297Z,31.96
2023-04-21T20:12:36.563Z,32.14
2023-04-21T20:15:05.820Z,32.45
2023-04-21T20:17:34.260Z,32.67
2023-04-21T20:20:05.164Z,33.07
2023-04-21T20:22:35.752Z,32.67
2023-04-21T20:25:04.899Z,33.28
2023-04-21T20:27:33.452Z,33.17
2023-04-21T20:30:01.668Z,32.86
2023-04-21T20:32:30.222Z,33.64
2023-04-21T20:34:59.585Z,33.47
2023-04-21T20:37:28.399Z,33.25
2023-04-21T20:40:00.930Z,33.07
2023-04-21T20:42:29.430Z,33.12
2023-04-21T20:44:57.234Z,32.57
2023-04-21T20:47:25.669Z,32.93
2023-04-21T20:49:54.741Z,32.53
2023-04-21T20:52:23.060Z,34.37
2023-04-21T20:54:52.387Z,35.15
2023-04-21T20:57:20.486Z,36.11
2023-04-21T20:59:48.992Z,34.09
2023-04-21T21:02:17.474Z,34.25
2023-04-21T21:04:47.202Z,34.49
2023-04-21T21:07:15.197Z,34.58
2023-04-21T21:09:44.472Z,34.67
2023-04-21T21:12:12.828Z,33.91
2023-04-21T21:14:41.160Z,33.30
2023-04-21T21:17:12.743Z,33.80
2023-04-21T21:19:41.671Z,33.21
2023-04-21T21:22:09.902Z,33.47
2023-04-21T21:24:38.338Z,35.07
2023-04-21T21:27:08.610Z,34.29
2023-04-21T21:29:37.290Z,34.66
2023-04-21T21:32:05.538Z,34.42
2023-04-21T21:34:33.591Z,33.96
2023-04-21T21:37:02.573Z,34.14
2023-04-21T21:39:30.806Z,33.80
2023-04-21T21:41:58.705Z,33.70
2023-04-21T21:44:27.113Z,33.40
2023-04-21T21:46:55.380Z,33.13
2023-04-21T21:49:23.660Z,33.31
2023-04-21T21:51:53.128Z,33.32
2023-04-21T21:54:21.753Z,33.88
2023-04-21T21:56:50.415Z,34.68
2023-04-21T21:59:18.243Z,34.74
2023-04-21T22:01:46.318Z,34.78
2023-04-21T22:04:14.900Z,34.27
2023-04-21T22:06:45.193Z,35.47
2023-04-21T22:09:13.579Z,35.25
2023-04-21T22:11:41.900Z,34.84
2023-04-21T22:14:21.916Z,35.76
2023-04-21T22:16:52.484Z,38.68
2023-04-21T22:19:21.473Z,37.17
2023-04-21T22:21:49.732Z,36.19
2023-04-21T22:24:18.277Z,35.26
2023-04-21T22:26:47.351Z,35.47
2023-04-21T22:29:15.369Z,34.54
2023-04-21T22:31:43.402Z,34.08
2023-04-21T22:34:14.922Z,34.11
2023-04-21T22:36:43.440Z,34.45
2023-04-21T22:39:12.101Z,34.27
2023-04-21T22:41:39.944Z,33.81
2023-04-21T22:44:08.060Z,34.86
2023-04-21T22:46:36.779Z,34.16
2023-04-21T22:49:05.187Z,34.10
2023-04-21T22:51:33.582Z,34.74
2023-04-21T22:54:01.931Z,34.10
2023-04-21T22:56:33.159Z,34.27
2023-04-21T22:59:01.446Z,34.26
2023-04-21T23:01:29.703Z,34.03
2023-04-21T23:03:57.927Z,34.61
2023-04-21T23:06:26.584Z,34.43
2023-04-21T23:08:54.533Z,34.86
2023-04-21T23:11:22.914Z,35.17
2023-04-21T23:13:50.968Z,35.93
2023-04-21T23:16:19.301Z,35.58
2023-04-21T23:18:47.450Z,35.75
2023-04-21T23:21:15.884Z,35.77
2023-04-21T23:23:44.177Z,35.31
2023-04-21T23:26:12.380Z,35.78
2023-04-21T23:28:40.384Z,35.89
2023-04-21T23:31:08.338Z,34.93
2023-04-21T23:33:36.782Z,34.47
2023-04-21T23:36:04.834Z,36.55
2023-04-21T23:38:32.851Z,35.22
2023-04-21T23:41:00.863Z,35.64
2023-04-21T23:43:29.288Z,36.46
2023-04-21T23:45:57.501Z,34.92
2023-04-21T23:48:25.469Z,37.18
2023-04-21T23:50:53.657Z,37.25
2023-04-21T23:53:21.826Z,36.64
2023-04-21T23:55:49.750Z,35.60
2023-04-21T23:58:17.719Z,35.25
